createdAt,value
2023-03-07T00:02:01.222Z,71.40
2023-03-07T00:07:07.003Z,62.80
2023-03-07T00:12:12.768Z,60.20
2023-03-07T00:17:18.753Z,64.60
2023-03-07T00:22:25.182Z,67.70
2023-03-07T00:27:32.017Z,70.60
2023-03-07T00:32:38.157Z,59.50
2023-03-07T00:37:44.064Z,53.50
2023-03-07T00:42:50.981Z,60.10
2023-03-07T00:47:57.558Z,63.80
2023-03-07T00:53:03.875Z,63.20
2023-03-07T00:58:09.993Z,54.70
2023-03-07T01:03:15.873Z,39.30
2023-03-07T01:08:22.933Z,39.30
2023-03-07T01:13:29.996Z,42.90
2023-03-07T01:18:35.751Z,49.10
2023-03-07T01:23:42.061Z,43.60
2023-03-07T01:28:50.404Z,43.00
2023-03-07T01:33:56.928Z,40.30
2023-03-07T01:39:06.812Z,36.60
2023-03-07T01:44:20.422Z,37.40
2023-03-07T01:49:30.148Z,37.00
2023-03-07T01:54:49.019Z,38.90
2023-03-07T02:00:01.041Z,32.90
2023-03-07T02:05:14.496Z,31.30
2023-03-07T02:10:22.726Z,34.70
2023-03-07T02:15:29.315Z,39.90
2023-03-07T02:20:43.413Z,40.50
2023-03-07T02:25:58.461Z,41.50
2023-03-07T02:31:07.482Z,39.60
2023-03-07T02:36:19.392Z,42.50
2023-03-07T02:41:38.507Z,35.70
2023-03-07T02:46:51.492Z,47.80
2023-03-07T02:52:00.696Z,58.00
2023-03-07T02:57:07.415Z,47.20
2023-03-07T03:02:13.735Z,49.80
2023-03-07T03:07:20.013Z,49.30
2023-03-07T03:12:26.307Z,44.40
2023-03-07T03:17:32.315Z,47.80
2023-03-07T03:22:38.356Z,44.50
2023-03-07T03:27:44.665Z,47.50
2023-03-07T03:32:51.486Z,45.50
2023-03-07T03:37:58.222Z,49.00
2023-03-07T03:43:04.928Z,46.50
2023-03-07T03:48:11.207Z,55.20
2023-03-07T03:53:17.072Z,50.10
2023-03-07T03:58:22.781Z,52.00
2023-03-07T04:03:28.915Z,53.90
2023-03-07T04:08:35.553Z,52.70
2023-03-07T04:13:41.652Z,52.30
2023-03-07T04:18:47.372Z,60.80
2023-03-07T04:23:57.221Z,60.60
2023-03-07T04:29:05.903Z,52.60
2023-03-07T04:34:15.553Z,54.80
2023-03-07T04:39:21.567Z,67.20
2023-03-07T04:44:27.841Z,76.40
2023-03-07T04:49:33.942Z,92.50
2023-03-07T04:54:41.008Z,79.10
2023-03-07T04:59:47.606Z,90.20
2023-03-07T05:04:54.184Z,85.70
2023-03-07T05:10:01.186Z,69.80
2023-03-07T05:15:10.300Z,80.20
2023-03-07T05:20:16.441Z,92.00
2023-03-07T05:25:22.560Z,98.90
2023-03-07T05:30:29.358Z,102.40
2023-03-07T05:35:35.678Z,108.90
2023-03-07T05:40:42.413Z,92.70
2023-03-07T05:45:50.981Z,92.80
2023-03-07T05:51:01.276Z,107.70
2023-03-07T06:01:12.375Z,109.10
2023-03-07T06:06:19.492Z,81.20
2023-03-07T06:11:25.737Z,76.20
2023-03-07T06:16:31.749Z,71.10
2023-03-07T06:21:38.527Z,85.30
2023-03-07T06:26:45.501Z,68.80
2023-03-07T06:31:52.197Z,63.60
2023-03-07T06:36:58.342Z,64.30
2023-03-07T06:42:04.828Z,70.70
2023-03-07T06:47:11.473Z,74.80
2023-03-07T06:52:17.461Z,91.90
2023-03-07T06:57:23.823Z,77.00
2023-03-07T07:02:29.893Z,72.50
2023-03-07T07:07:36.181Z,69.60
2023-03-07T07:12:42.696Z,74.90
2023-03-07T07:17:51.397Z,86.70
2023-03-07T07:22:58.076Z,78.40
2023-03-07T07:28:04.308Z,75.40
2023-03-07T07:33:10.405Z,71.50
2023-03-07T07:38:16.483Z,78.30
2023-03-07T07:43:22.657Z,72.90
2023-03-07T07:48:37.738Z,95.20
2023-03-07T07:53:43.616Z,62.00
2023-03-07T07:58:50.540Z,62.20
2023-03-07T08:03:56.454Z,73.40
2023-03-07T08:09:03.169Z,64.10
2023-03-07T08:14:09.871Z,66.20
2023-03-07T08:19:15.966Z,65.20
2023-03-07T08:24:32.047Z,55.60
2023-03-07T08:29:48.088Z,44.30
2023-03-07T08:34:54.229Z,40.00
2023-03-07T08:40:00.157Z,35.40
2023-03-07T08:45:08.221Z,30.80
2023-03-07T08:50:14.500Z,24.20
2023-03-07T08:55:21.277Z,33.70
2023-03-07T09:00:27.222Z,27.70
2023-03-07T09:05:36.807Z,22.60
2023-03-07T09:10:42.640Z,23.50
2023-03-07T09:15:48.377Z,24.10
2023-03-07T09:20:54.416Z,33.40
2023-03-07T09:26:02.047Z,32.50
2023-03-07T09:31:11.081Z,26.30
2023-03-07T09:36:19.602Z,26.60
2023-03-07T09:41:52.256Z,29.30
2023-03-07T09:47:11.014Z,27.50
2023-03-07T09:52:20.587Z,25.00
2023-03-07T09:57:28.722Z,29.90
2023-03-07T10:02:39.296Z,27.00
2023-03-07T10:07:45.501Z,31.50
2023-03-07T10:13:04.904Z,31.70
2023-03-07T10:18:39.891Z,32.80
2023-03-07T10:24:20.343Z,32.60
2023-03-07T10:29:31.283Z,33.30
2023-03-07T10:39:49.697Z,55.80
2023-03-07T10:44:55.524Z,35.00
2023-03-07T10:50:18.230Z,36.80
2023-03-07T10:55:37.122Z,38.50
2023-03-07T11:00:47.256Z,41.40
2023-03-07T11:05:53.982Z,52.00
2023-03-07T11:11:00.978Z,49.20
2023-03-07T11:16:20.407Z,48.10
2023-03-07T11:21:32.809Z,48.00
2023-03-07T11:26:41.726Z,48.00
2023-03-07T11:31:58.519Z,45.30
2023-03-07T11:37:23.676Z,44.20
2023-03-07T11:42:35.131Z,50.40
2023-03-07T11:53:21.809Z,42.70
2023-03-07T11:59:10.013Z,45.50
2023-03-07T12:04:38.721Z,47.30
2023-03-07T12:09:55.344Z,41.70
2023-03-07T12:15:19.699Z,47.70
2023-03-07T12:20:31.035Z,49.50
2023-03-07T12:25:40.173Z,47.30
2023-03-07T12:31:02.251Z,43.00
2023-03-07T12:36:16.537Z,38.00
2023-03-07T12:41:32.305Z,41.20
2023-03-07T12:46:47.016Z,36.90
2023-03-07T12:52:00.013Z,35.00
2023-03-07T12:57:10.198Z,35.80
2023-03-07T13:02:21.988Z,33.60
2023-03-07T13:07:30.812Z,30.70
2023-03-07T13:12:38.376Z,30.00
2023-03-07T13:18:01.191Z,27.80
2023-03-07T13:23:32.400Z,32.90
2023-03-07T13:33:48.089Z,31.80
2023-03-07T13:38:54.415Z,33.20
2023-03-07T13:44:04.801Z,32.40
2023-03-07T13:49:11.048Z,33.00
2023-03-07T13:54:16.935Z,33.00
2023-03-07T13:59:28.668Z,32.80
2023-03-07T14:04:41.244Z,32.50
2023-03-07T14:09:50.970Z,33.50
2023-03-07T14:15:13.054Z,33.50
2023-03-07T14:20:28.035Z,33.80
2023-03-07T14:25:35.969Z,27.20
2023-03-07T14:30:42.115Z,29.80
2023-03-07T14:35:49.109Z,29.90
2023-03-07T14:41:23.210Z,25.40
2023-03-07T14:46:36.385Z,26.90
2023-03-07T14:51:44.735Z,34.60
2023-03-07T14:56:54.156Z,25.40
2023-03-07T15:02:00.117Z,27.00
2023-03-07T15:07:20.685Z,26.90
2023-03-07T15:12:30.332Z,27.20
2023-03-07T15:17:44.055Z,27.70
2023-03-07T15:22:52.393Z,29.50
2023-03-07T15:28:04.458Z,30.30
2023-03-07T15:33:22.423Z,27.30
2023-03-07T15:38:29.343Z,30.20
2023-03-07T15:43:37.520Z,26.20
2023-03-07T15:48:48.729Z,29.10
2023-03-07T15:59:05.114Z,31.90
2023-03-07T16:04:30.640Z,39.00
2023-03-07T16:09:36.345Z,37.40
2023-03-07T16:14:42.422Z,26.80
2023-03-07T16:19:49.784Z,25.10
2023-03-07T16:24:55.758Z,27.60
2023-03-07T16:30:02.534Z,26.60
2023-03-07T16:35:16.616Z,24.50
2023-03-07T16:40:23.455Z,33.20
2023-03-07T16:45:30.747Z,25.70
2023-03-07T16:50:36.897Z,28.50
2023-03-07T16:55:43.291Z,28.80
2023-03-07T17:00:50.463Z,27.80
2023-03-07T17:05:56.446Z,25.60
2023-03-07T17:11:02.557Z,27.60
2023-03-07T17:16:12.338Z,29.00
2023-03-07T17:21:21.586Z,22.40
2023-03-07T17:26:31.892Z,29.00
2023-03-07T17:31:37.733Z,25.60
2023-03-07T17:36:43.729Z,23.80
2023-03-07T17:41:50.728Z,26.10
2023-03-07T17:46:56.856Z,26.30
2023-03-07T17:52:06.290Z,24.80
2023-03-07T17:57:12.494Z,32.40
2023-03-07T18:02:18.345Z,24.10
2023-03-07T18:07:24.954Z,27.00
2023-03-07T18:12:31.734Z,31.40
2023-03-07T18:17:47.709Z,31.20
2023-03-07T18:22:56.062Z,29.70
2023-03-07T18:28:05.791Z,33.50
2023-03-07T18:33:13.114Z,29.00
2023-03-07T18:38:20.457Z,32.00
2023-03-07T18:43:27.392Z,31.90
2023-03-07T18:48:34.794Z,30.20
2023-03-07T18:53:42.800Z,28.40
2023-03-07T18:58:54.404Z,28.80
2023-03-07T19:04:03.521Z,30.80
2023-03-07T19:09:15.956Z,27.00
2023-03-07T19:14:22.089Z,28.40
2023-03-07T19:19:28.003Z,28.00
2023-03-07T19:24:34.257Z,30.60
2023-03-07T19:29:39.890Z,28.30
2023-03-07T19:34:48.141Z,25.40
2023-03-07T19:39:54.722Z,27.40
2023-03-07T19:45:00.520Z,22.50
2023-03-07T19:50:07.701Z,18.90
2023-03-07T19:55:13.678Z,19.90
2023-03-07T20:00:21.527Z,26.00
2023-03-07T20:05:27.592Z,18.10
2023-03-07T20:10:33.501Z,20.90
2023-03-07T20:15:39.378Z,17.80
2023-03-07T20:20:45.709Z,20.70
2023-03-07T20:26:23.246Z,22.40
2023-03-07T20:31:29.449Z,19.00
2023-03-07T20:36:36.145Z,17.30
2023-03-07T20:41:42.703Z,17.70
2023-03-07T20:46:49.901Z,14.50
2023-03-07T20:51:55.904Z,15.30
2023-03-07T20:57:03.721Z,15.20
2023-03-07T21:02:09.615Z,15.40
2023-03-07T21:07:15.141Z,15.50
2023-03-07T21:12:21.104Z,13.40
2023-03-07T21:17:26.493Z,16.90
2023-03-07T21:22:32.238Z,19.00
2023-03-07T21:27:37.763Z,18.70
2023-03-07T21:32:43.499Z,18.40
2023-03-07T21:37:49.761Z,14.50
2023-03-07T21:42:55.230Z,12.90
2023-03-07T21:48:00.842Z,11.90
2023-03-07T21:53:06.380Z,11.10
2023-03-07T21:58:12.003Z,11.20
2023-03-07T22:03:18.087Z,14.20
2023-03-07T22:08:23.500Z,12.20
2023-03-07T22:13:29.773Z,11.10
2023-03-07T22:18:35.294Z,12.70
2023-03-07T22:23:40.908Z,14.00
2023-03-07T22:28:46.356Z,4.60
2023-03-07T22:33:52.628Z,4.60
2023-03-07T22:38:58.151Z,3.90
2023-03-07T22:44:03.989Z,4.10
2023-03-07T22:49:12.307Z,5.70
2023-03-07T22:54:17.798Z,5.30
2023-03-07T22:59:23.190Z,6.50
2023-03-07T23:04:30.562Z,4.60
2023-03-07T23:09:36.205Z,6.90
2023-03-07T23:14:41.735Z,7.90
2023-03-07T23:19:47.437Z,7.90
2023-03-07T23:24:53.079Z,7.30
2023-03-07T23:29:58.777Z,5.30
2023-03-07T23:35:05.178Z,5.00
2023-03-07T23:40:12.557Z,3.20
2023-03-07T23:45:19.625Z,3.00
2023-03-07T23:50:27.157Z,7.60
2023-03-07T23:55:32.759Z,5.80
